Terminal Aerodrome Forecast
Issued by NWS

Home | Current Version | Previous Version | Text Only | Print | Product List | Glossary On
Versions: 1 2 3 4 5 6 7 8 9 10 11 12 13
000
FTUS44 KLIX 012300 RRA
TAFMCB
TAF
KMCB 012340Z 0200/0224 15006KT P6SM SCT045
     FM020600 VRB03KT 4SM BR BKN009
     FM021000 00000KT 2SM BR BKN005
     FM021400 18007KT P6SM VCSH SCT020 BKN050
     FM021900 19007KT P6SM VCTS SCT025 BKN040CB=

USA.gov is the U.S. government's official web portal to all federal, state and local government web resources and services.